sensor_id;sensor_type;location;lat;lon;timestamp;P1;durP1;ratioP1;P2;durP2;ratioP2
28009;SDS011;15334;49.494;8.410;2023-11-19T00:00:23;6.55;;;3.22;;
28009;SDS011;15334;49.494;8.410;2023-11-19T00:02:51;8.73;;;3.40;;
28009;SDS011;15334;49.494;8.410;2023-11-19T00:05:19;5.85;;;3.00;;
28009;SDS011;15334;49.494;8.410;2023-11-19T00:07:47;5.05;;;3.05;;
28009;SDS011;15334;49.494;8.410;2023-11-19T00:10:15;5.53;;;2.80;;
28009;SDS011;15334;49.494;8.410;2023-11-19T00:12:47;6.00;;;2.70;;
28009;SDS011;15334;49.494;8.410;2023-11-19T00:15:16;4.68;;;2.58;;
28009;SDS011;15334;49.494;8.410;2023-11-19T00:17:46;4.88;;;2.70;;
28009;SDS011;15334;49.494;8.410;2023-11-19T00:20:16;6.93;;;2.80;;
28009;SDS011;15334;49.494;8.410;2023-11-19T00:22:46;6.57;;;2.60;;
28009;SDS011;15334;49.494;8.410;2023-11-19T00:25:17;5.43;;;2.70;;
28009;SDS011;15334;49.494;8.410;2023-11-19T00:27:47;4.68;;;2.28;;
28009;SDS011;15334;49.494;8.410;2023-11-19T00:30:17;5.35;;;2.47;;
28009;SDS011;15334;49.494;8.410;2023-11-19T00:32:45;5.18;;;2.30;;
28009;SDS011;15334;49.494;8.410;2023-11-19T00:35:12;5.38;;;2.30;;
28009;SDS011;15334;49.494;8.410;2023-11-19T00:37:41;6.50;;;2.60;;
28009;SDS011;15334;49.494;8.410;2023-11-19T00:40:12;5.47;;;2.35;;
28009;SDS011;15334;49.494;8.410;2023-11-19T00:42:40;4.20;;;2.30;;
28009;SDS011;15334;49.494;8.410;2023-11-19T00:45:09;4.13;;;1.80;;
28009;SDS011;15334;49.494;8.410;2023-11-19T00:47:39;6.07;;;2.10;;
28009;SDS011;15334;49.494;8.410;2023-11-19T00:50:07;4.43;;;2.15;;
28009;SDS011;15334;49.494;8.410;2023-11-19T00:52:36;5.60;;;2.03;;
28009;SDS011;15334;49.494;8.410;2023-11-19T00:55:05;6.00;;;2.33;;
28009;SDS011;15334;49.494;8.410;2023-11-19T00:57:34;4.00;;;1.90;;
28009;SDS011;15334;49.494;8.410;2023-11-19T01:00:03;3.08;;;1.60;;
28009;SDS011;15334;49.494;8.410;2023-11-19T01:02:38;3.95;;;1.50;;
28009;SDS011;15334;49.494;8.410;2023-11-19T01:05:07;2.92;;;1.60;;
28009;SDS011;15334;49.494;8.410;2023-11-19T01:07:36;3.65;;;1.75;;
28009;SDS011;15334;49.494;8.410;2023-11-19T01:10:05;3.60;;;1.50;;
28009;SDS011;15334;49.494;8.410;2023-11-19T01:12:35;6.78;;;1.33;;
28009;SDS011;15334;49.494;8.410;2023-11-19T01:15:04;4.55;;;1.42;;
28009;SDS011;15334;49.494;8.410;2023-11-19T01:17:32;2.92;;;1.35;;
28009;SDS011;15334;49.494;8.410;2023-11-19T01:20:03;4.18;;;1.30;;
28009;SDS011;15334;49.494;8.410;2023-11-19T01:22:32;1.88;;;1.13;;
28009;SDS011;15334;49.494;8.410;2023-11-19T01:25:00;2.30;;;1.20;;
28009;SDS011;15334;49.494;8.410;2023-11-19T01:27:29;5.45;;;1.20;;
28009;SDS011;15334;49.494;8.410;2023-11-19T01:29:57;2.05;;;1.02;;
28009;SDS011;15334;49.494;8.410;2023-11-19T01:32:25;1.73;;;0.73;;
28009;SDS011;15334;49.494;8.410;2023-11-19T01:34:53;2.70;;;0.90;;
28009;SDS011;15334;49.494;8.410;2023-11-19T01:37:22;1.60;;;0.88;;
28009;SDS011;15334;49.494;8.410;2023-11-19T01:39:50;2.40;;;1.02;;
28009;SDS011;15334;49.494;8.410;2023-11-19T01:42:21;1.30;;;0.90;;
28009;SDS011;15334;49.494;8.410;2023-11-19T01:45:00;4.13;;;1.08;;
28009;SDS011;15334;49.494;8.410;2023-11-19T01:47:28;0.77;;;0.60;;
28009;SDS011;15334;49.494;8.410;2023-11-19T01:49:58;2.55;;;1.00;;
28009;SDS011;15334;49.494;8.410;2023-11-19T01:52:27;1.38;;;0.90;;
28009;SDS011;15334;49.494;8.410;2023-11-19T01:54:56;1.23;;;0.70;;
28009;SDS011;15334;49.494;8.410;2023-11-19T01:57:24;3.50;;;1.20;;
28009;SDS011;15334;49.494;8.410;2023-11-19T01:59:52;1.00;;;0.73;;
28009;SDS011;15334;49.494;8.410;2023-11-19T02:02:21;1.38;;;1.00;;
28009;SDS011;15334;49.494;8.410;2023-11-19T02:04:49;2.33;;;0.98;;
28009;SDS011;15334;49.494;8.410;2023-11-19T02:07:19;2.17;;;1.25;;
28009;SDS011;15334;49.494;8.410;2023-11-19T02:09:49;2.97;;;1.05;;
28009;SDS011;15334;49.494;8.410;2023-11-19T02:12:17;1.98;;;1.00;;
28009;SDS011;15334;49.494;8.410;2023-11-19T02:14:46;2.55;;;1.30;;
28009;SDS011;15334;49.494;8.410;2023-11-19T02:17:27;1.67;;;0.93;;
28009;SDS011;15334;49.494;8.410;2023-11-19T02:19:55;1.70;;;0.88;;
28009;SDS011;15334;49.494;8.410;2023-11-19T02:22:23;3.22;;;1.05;;
28009;SDS011;15334;49.494;8.410;2023-11-19T02:24:54;1.25;;;0.82;;
28009;SDS011;15334;49.494;8.410;2023-11-19T02:27:30;1.58;;;1.00;;
28009;SDS011;15334;49.494;8.410;2023-11-19T02:30:11;4.05;;;2.25;;
28009;SDS011;15334;49.494;8.410;2023-11-19T02:32:40;6.03;;;2.10;;
28009;SDS011;15334;49.494;8.410;2023-11-19T02:35:09;4.65;;;2.80;;
28009;SDS011;15334;49.494;8.410;2023-11-19T02:37:37;6.82;;;3.13;;
28009;SDS011;15334;49.494;8.410;2023-11-19T02:40:06;7.10;;;3.67;;
28009;SDS011;15334;49.494;8.410;2023-11-19T02:42:35;9.15;;;4.53;;
28009;SDS011;15334;49.494;8.410;2023-11-19T02:45:05;8.25;;;3.55;;
28009;SDS011;15334;49.494;8.410;2023-11-19T02:47:33;5.82;;;3.03;;
28009;SDS011;15334;49.494;8.410;2023-11-19T02:50:02;7.32;;;3.03;;
28009;SDS011;15334;49.494;8.410;2023-11-19T02:52:33;4.10;;;2.08;;
28009;SDS011;15334;49.494;8.410;2023-11-19T02:55:04;4.43;;;1.98;;
28009;SDS011;15334;49.494;8.410;2023-11-19T02:57:36;3.63;;;1.02;;
28009;SDS011;15334;49.494;8.410;2023-11-19T03:00:06;1.27;;;0.73;;
28009;SDS011;15334;49.494;8.410;2023-11-19T03:02:39;1.23;;;0.60;;
28009;SDS011;15334;49.494;8.410;2023-11-19T03:05:12;1.95;;;0.60;;
28009;SDS011;15334;49.494;8.410;2023-11-19T03:07:41;0.60;;;0.52;;
28009;SDS011;15334;49.494;8.410;2023-11-19T03:10:12;1.55;;;0.73;;
28009;SDS011;15334;49.494;8.410;2023-11-19T03:12:41;1.60;;;0.70;;
28009;SDS011;15334;49.494;8.410;2023-11-19T03:15:11;0.47;;;0.47;;
28009;SDS011;15334;49.494;8.410;2023-11-19T03:17:39;0.82;;;0.68;;
28009;SDS011;15334;49.494;8.410;2023-11-19T03:20:08;1.27;;;0.70;;
28009;SDS011;15334;49.494;8.410;2023-11-19T03:22:37;0.65;;;0.60;;
28009;SDS011;15334;49.494;8.410;2023-11-19T03:25:05;0.98;;;0.60;;
28009;SDS011;15334;49.494;8.410;2023-11-19T03:27:34;1.33;;;0.60;;
28009;SDS011;15334;49.494;8.410;2023-11-19T03:30:03;1.08;;;0.98;;
28009;SDS011;15334;49.494;8.410;2023-11-19T03:32:33;1.30;;;0.75;;
28009;SDS011;15334;49.494;8.410;2023-11-19T03:35:01;4.07;;;1.42;;
28009;SDS011;15334;49.494;8.410;2023-11-19T03:37:30;0.93;;;0.65;;
28009;SDS011;15334;49.494;8.410;2023-11-19T03:39:59;1.05;;;0.80;;
28009;SDS011;15334;49.494;8.410;2023-11-19T03:42:28;3.92;;;0.90;;
28009;SDS011;15334;49.494;8.410;2023-11-19T03:44:57;2.80;;;1.17;;
28009;SDS011;15334;49.494;8.410;2023-11-19T03:47:25;4.88;;;1.13;;
28009;SDS011;15334;49.494;8.410;2023-11-19T03:49:54;1.92;;;0.90;;
28009;SDS011;15334;49.494;8.410;2023-11-19T03:52:22;2.35;;;1.00;;
28009;SDS011;15334;49.494;8.410;2023-11-19T03:54:50;2.20;;;1.20;;
28009;SDS011;15334;49.494;8.410;2023-11-19T03:57:18;1.67;;;1.02;;
28009;SDS011;15334;49.494;8.410;2023-11-19T03:59:46;1.63;;;0.93;;
28009;SDS011;15334;49.494;8.410;2023-11-19T04:02:14;1.77;;;0.93;;
28009;SDS011;15334;49.494;8.410;2023-11-19T04:04:43;2.45;;;1.25;;
28009;SDS011;15334;49.494;8.410;2023-11-19T04:07:12;4.47;;;1.00;;
28009;SDS011;15334;49.494;8.410;2023-11-19T04:09:40;2.85;;;0.95;;
28009;SDS011;15334;49.494;8.410;2023-11-19T04:12:08;2.53;;;0.88;;
28009;SDS011;15334;49.494;8.410;2023-11-19T04:14:36;2.35;;;1.00;;
28009;SDS011;15334;49.494;8.410;2023-11-19T04:17:04;2.60;;;0.98;;
28009;SDS011;15334;49.494;8.410;2023-11-19T04:19:32;1.42;;;0.80;;
28009;SDS011;15334;49.494;8.410;2023-11-19T04:22:00;1.40;;;0.75;;
28009;SDS011;15334;49.494;8.410;2023-11-19T04:24:29;1.25;;;0.85;;
28009;SDS011;15334;49.494;8.410;2023-11-19T04:26:57;1.25;;;0.90;;
28009;SDS011;15334;49.494;8.410;2023-11-19T04:29:25;1.20;;;0.73;;
28009;SDS011;15334;49.494;8.410;2023-11-19T04:31:53;3.05;;;1.20;;
28009;SDS011;15334;49.494;8.410;2023-11-19T04:34:21;1.92;;;1.15;;
28009;SDS011;15334;49.494;8.410;2023-11-19T04:36:49;3.35;;;1.10;;
28009;SDS011;15334;49.494;8.410;2023-11-19T04:39:17;3.70;;;1.15;;
28009;SDS011;15334;49.494;8.410;2023-11-19T04:41:46;1.75;;;1.00;;
28009;SDS011;15334;49.494;8.410;2023-11-19T04:44:15;1.48;;;0.90;;
28009;SDS011;15334;49.494;8.410;2023-11-19T04:46:43;1.73;;;0.93;;
28009;SDS011;15334;49.494;8.410;2023-11-19T04:49:12;5.13;;;1.25;;
28009;SDS011;15334;49.494;8.410;2023-11-19T04:51:41;1.60;;;0.90;;
28009;SDS011;15334;49.494;8.410;2023-11-19T04:54:10;1.75;;;0.90;;
28009;SDS011;15334;49.494;8.410;2023-11-19T04:56:38;2.35;;;1.10;;
28009;SDS011;15334;49.494;8.410;2023-11-19T04:59:07;2.58;;;1.10;;
28009;SDS011;15334;49.494;8.410;2023-11-19T05:01:35;6.95;;;1.10;;
28009;SDS011;15334;49.494;8.410;2023-11-19T05:04:03;4.90;;;1.08;;
28009;SDS011;15334;49.494;8.410;2023-11-19T05:06:31;2.13;;;0.98;;
28009;SDS011;15334;49.494;8.410;2023-11-19T05:08:59;1.33;;;0.98;;
28009;SDS011;15334;49.494;8.410;2023-11-19T05:11:32;2.88;;;1.35;;
28009;SDS011;15334;49.494;8.410;2023-11-19T05:14:02;3.17;;;1.35;;
28009;SDS011;15334;49.494;8.410;2023-11-19T05:16:32;2.25;;;1.13;;
28009;SDS011;15334;49.494;8.410;2023-11-19T05:19:01;1.23;;;0.98;;
28009;SDS011;15334;49.494;8.410;2023-11-19T05:21:30;2.20;;;1.10;;
28009;SDS011;15334;49.494;8.410;2023-11-19T05:23:58;2.25;;;1.30;;
28009;SDS011;15334;49.494;8.410;2023-11-19T05:26:26;2.97;;;1.23;;
28009;SDS011;15334;49.494;8.410;2023-11-19T05:28:54;4.30;;;1.33;;
28009;SDS011;15334;49.494;8.410;2023-11-19T05:31:21;2.10;;;1.17;;
28009;SDS011;15334;49.494;8.410;2023-11-19T05:33:51;2.83;;;1.48;;
28009;SDS011;15334;49.494;8.410;2023-11-19T05:36:19;1.23;;;0.82;;
28009;SDS011;15334;49.494;8.410;2023-11-19T05:38:46;2.17;;;1.15;;
28009;SDS011;15334;49.494;8.410;2023-11-19T05:41:14;2.95;;;1.20;;
28009;SDS011;15334;49.494;8.410;2023-11-19T05:43:42;2.55;;;1.20;;
28009;SDS011;15334;49.494;8.410;2023-11-19T05:46:10;2.60;;;1.10;;
28009;SDS011;15334;49.494;8.410;2023-11-19T05:48:42;4.15;;;1.33;;
28009;SDS011;15334;49.494;8.410;2023-11-19T05:51:13;3.15;;;1.15;;
28009;SDS011;15334;49.494;8.410;2023-11-19T05:53:42;3.97;;;1.75;;
28009;SDS011;15334;49.494;8.410;2023-11-19T05:56:10;2.45;;;1.10;;
28009;SDS011;15334;49.494;8.410;2023-11-19T05:58:37;4.68;;;1.58;;
28009;SDS011;15334;49.494;8.410;2023-11-19T06:01:06;3.38;;;1.30;;
28009;SDS011;15334;49.494;8.410;2023-11-19T06:03:35;2.92;;;1.33;;
28009;SDS011;15334;49.494;8.410;2023-11-19T06:06:06;3.63;;;1.38;;
28009;SDS011;15334;49.494;8.410;2023-11-19T06:08:46;3.00;;;1.42;;
28009;SDS011;15334;49.494;8.410;2023-11-19T06:11:14;2.47;;;1.40;;
28009;SDS011;15334;49.494;8.410;2023-11-19T06:13:45;2.28;;;1.23;;
28009;SDS011;15334;49.494;8.410;2023-11-19T06:16:14;2.58;;;1.30;;
28009;SDS011;15334;49.494;8.410;2023-11-19T06:18:42;2.85;;;1.48;;
28009;SDS011;15334;49.494;8.410;2023-11-19T06:21:11;2.28;;;1.38;;
28009;SDS011;15334;49.494;8.410;2023-11-19T06:23:39;2.20;;;1.13;;
28009;SDS011;15334;49.494;8.410;2023-11-19T06:26:08;2.70;;;1.35;;
28009;SDS011;15334;49.494;8.410;2023-11-19T06:28:36;3.10;;;1.00;;
28009;SDS011;15334;49.494;8.410;2023-11-19T06:31:04;3.72;;;1.48;;
28009;SDS011;15334;49.494;8.410;2023-11-19T06:33:32;3.80;;;1.30;;
28009;SDS011;15334;49.494;8.410;2023-11-19T06:36:00;2.20;;;1.10;;
28009;SDS011;15334;49.494;8.410;2023-11-19T06:38:28;2.67;;;1.48;;
28009;SDS011;15334;49.494;8.410;2023-11-19T06:40:56;1.90;;;1.15;;
28009;SDS011;15334;49.494;8.410;2023-11-19T06:43:25;2.17;;;1.15;;
28009;SDS011;15334;49.494;8.410;2023-11-19T06:46:13;1.98;;;1.00;;
28009;SDS011;15334;49.494;8.410;2023-11-19T06:48:59;2.88;;;1.20;;
28009;SDS011;15334;49.494;8.410;2023-11-19T06:51:31;2.30;;;1.17;;
28009;SDS011;15334;49.494;8.410;2023-11-19T06:53:59;1.83;;;1.10;;
28009;SDS011;15334;49.494;8.410;2023-11-19T06:56:27;3.33;;;1.13;;
28009;SDS011;15334;49.494;8.410;2023-11-19T06:58:56;1.42;;;0.93;;
28009;SDS011;15334;49.494;8.410;2023-11-19T07:01:24;1.95;;;1.05;;
28009;SDS011;15334;49.494;8.410;2023-11-19T07:03:52;2.20;;;1.15;;
28009;SDS011;15334;49.494;8.410;2023-11-19T07:06:20;1.88;;;1.02;;
28009;SDS011;15334;49.494;8.410;2023-11-19T07:09:00;3.58;;;1.20;;
28009;SDS011;15334;49.494;8.410;2023-11-19T07:11:35;2.15;;;1.02;;
28009;SDS011;15334;49.494;8.410;2023-11-19T07:14:06;3.17;;;1.30;;
28009;SDS011;15334;49.494;8.410;2023-11-19T07:16:35;3.40;;;1.20;;
28009;SDS011;15334;49.494;8.410;2023-11-19T07:19:04;2.42;;;0.80;;
28009;SDS011;15334;49.494;8.410;2023-11-19T07:21:32;5.40;;;1.35;;
28009;SDS011;15334;49.494;8.410;2023-11-19T07:24:02;5.97;;;1.20;;
28009;SDS011;15334;49.494;8.410;2023-11-19T07:26:30;1.75;;;0.98;;
28009;SDS011;15334;49.494;8.410;2023-11-19T07:28:58;2.70;;;0.90;;
28009;SDS011;15334;49.494;8.410;2023-11-19T07:31:29;1.75;;;0.90;;
28009;SDS011;15334;49.494;8.410;2023-11-19T07:33:57;3.90;;;1.10;;
28009;SDS011;15334;49.494;8.410;2023-11-19T07:36:25;2.65;;;1.00;;
28009;SDS011;15334;49.494;8.410;2023-11-19T07:38:53;2.28;;;1.20;;
28009;SDS011;15334;49.494;8.410;2023-11-19T07:41:23;1.88;;;1.10;;
28009;SDS011;15334;49.494;8.410;2023-11-19T07:43:52;5.72;;;1.33;;
28009;SDS011;15334;49.494;8.410;2023-11-19T07:46:20;4.03;;;1.15;;
28009;SDS011;15334;49.494;8.410;2023-11-19T07:48:50;2.17;;;0.70;;
28009;SDS011;15334;49.494;8.410;2023-11-19T07:51:19;5.32;;;0.90;;
28009;SDS011;15334;49.494;8.410;2023-11-19T07:53:47;2.47;;;1.00;;
28009;SDS011;15334;49.494;8.410;2023-11-19T07:56:15;2.67;;;1.00;;
28009;SDS011;15334;49.494;8.410;2023-11-19T07:58:43;7.97;;;1.20;;
28009;SDS011;15334;49.494;8.410;2023-11-19T08:01:12;1.95;;;1.00;;
28009;SDS011;15334;49.494;8.410;2023-11-19T08:03:40;1.98;;;0.95;;
28009;SDS011;15334;49.494;8.410;2023-11-19T08:06:25;2.83;;;1.63;;
28009;SDS011;15334;49.494;8.410;2023-11-19T08:08:54;2.08;;;0.98;;
28009;SDS011;15334;49.494;8.410;2023-11-19T08:11:22;2.00;;;1.20;;
28009;SDS011;15334;49.494;8.410;2023-11-19T08:13:50;4.25;;;1.20;;
28009;SDS011;15334;49.494;8.410;2023-11-19T08:16:18;3.35;;;1.00;;
28009;SDS011;15334;49.494;8.410;2023-11-19T08:18:46;3.50;;;1.38;;
28009;SDS011;15334;49.494;8.410;2023-11-19T08:21:14;2.20;;;0.88;;
28009;SDS011;15334;49.494;8.410;2023-11-19T08:23:44;1.02;;;0.77;;
28009;SDS011;15334;49.494;8.410;2023-11-19T08:26:12;1.13;;;0.80;;
28009;SDS011;15334;49.494;8.410;2023-11-19T08:28:44;2.72;;;0.98;;
28009;SDS011;15334;49.494;8.410;2023-11-19T08:31:12;1.27;;;0.88;;
28009;SDS011;15334;49.494;8.410;2023-11-19T08:33:40;2.80;;;1.00;;
28009;SDS011;15334;49.494;8.410;2023-11-19T08:36:09;2.42;;;0.93;;
28009;SDS011;15334;49.494;8.410;2023-11-19T08:38:44;4.97;;;1.38;;
28009;SDS011;15334;49.494;8.410;2023-11-19T08:41:13;1.98;;;1.10;;
28009;SDS011;15334;49.494;8.410;2023-11-19T08:43:43;2.05;;;0.85;;
28009;SDS011;15334;49.494;8.410;2023-11-19T08:46:11;6.43;;;1.15;;
28009;SDS011;15334;49.494;8.410;2023-11-19T08:48:40;5.32;;;1.10;;
28009;SDS011;15334;49.494;8.410;2023-11-19T08:51:08;2.08;;;1.15;;
28009;SDS011;15334;49.494;8.410;2023-11-19T08:53:36;1.80;;;1.05;;
28009;SDS011;15334;49.494;8.410;2023-11-19T08:56:05;2.75;;;1.17;;
28009;SDS011;15334;49.494;8.410;2023-11-19T08:58:34;4.25;;;1.00;;
28009;SDS011;15334;49.494;8.410;2023-11-19T09:01:02;2.25;;;1.00;;
28009;SDS011;15334;49.494;8.410;2023-11-19T09:03:31;2.47;;;1.23;;
28009;SDS011;15334;49.494;8.410;2023-11-19T09:06:00;6.22;;;1.15;;
28009;SDS011;15334;49.494;8.410;2023-11-19T09:08:28;3.83;;;0.85;;
28009;SDS011;15334;49.494;8.410;2023-11-19T09:10:56;5.03;;;1.00;;
28009;SDS011;15334;49.494;8.410;2023-11-19T09:13:25;4.20;;;1.20;;
28009;SDS011;15334;49.494;8.410;2023-11-19T09:15:53;2.30;;;1.05;;
28009;SDS011;15334;49.494;8.410;2023-11-19T09:18:23;6.65;;;1.10;;
28009;SDS011;15334;49.494;8.410;2023-11-19T09:20:51;4.80;;;1.00;;
28009;SDS011;15334;49.494;8.410;2023-11-19T09:23:19;1.52;;;1.10;;
28009;SDS011;15334;49.494;8.410;2023-11-19T09:25:47;4.65;;;0.98;;
28009;SDS011;15334;49.494;8.410;2023-11-19T09:28:15;3.50;;;0.90;;
28009;SDS011;15334;49.494;8.410;2023-11-19T09:30:44;3.90;;;1.15;;
28009;SDS011;15334;49.494;8.410;2023-11-19T09:33:12;4.78;;;1.35;;
28009;SDS011;15334;49.494;8.410;2023-11-19T09:35:40;2.25;;;0.95;;
28009;SDS011;15334;49.494;8.410;2023-11-19T09:38:08;4.57;;;0.80;;
28009;SDS011;15334;49.494;8.410;2023-11-19T09:40:35;3.63;;;1.33;;
28009;SDS011;15334;49.494;8.410;2023-11-19T09:43:05;5.95;;;1.52;;
28009;SDS011;15334;49.494;8.410;2023-11-19T09:45:40;2.47;;;1.35;;
28009;SDS011;15334;49.494;8.410;2023-11-19T09:48:16;4.50;;;1.33;;
28009;SDS011;15334;49.494;8.410;2023-11-19T09:50:44;3.88;;;1.40;;
28009;SDS011;15334;49.494;8.410;2023-11-19T09:53:13;2.78;;;1.00;;
28009;SDS011;15334;49.494;8.410;2023-11-19T09:55:42;2.25;;;1.10;;
28009;SDS011;15334;49.494;8.410;2023-11-19T09:58:10;3.40;;;1.02;;
28009;SDS011;15334;49.494;8.410;2023-11-19T10:00:41;2.03;;;0.98;;
28009;SDS011;15334;49.494;8.410;2023-11-19T10:03:10;1.73;;;1.00;;
28009;SDS011;15334;49.494;8.410;2023-11-19T10:05:39;4.00;;;1.08;;
28009;SDS011;15334;49.494;8.410;2023-11-19T10:08:08;4.00;;;1.00;;
28009;SDS011;15334;49.494;8.410;2023-11-19T10:10:37;1.98;;;1.05;;
28009;SDS011;15334;49.494;8.410;2023-11-19T10:13:05;2.80;;;1.30;;
28009;SDS011;15334;49.494;8.410;2023-11-19T10:15:35;2.22;;;0.80;;
28009;SDS011;15334;49.494;8.410;2023-11-19T10:18:04;3.60;;;1.15;;
28009;SDS011;15334;49.494;8.410;2023-11-19T10:20:36;3.80;;;1.10;;
28009;SDS011;15334;49.494;8.410;2023-11-19T10:23:04;6.15;;;1.80;;
28009;SDS011;15334;49.494;8.410;2023-11-19T10:25:32;3.17;;;1.40;;
28009;SDS011;15334;49.494;8.410;2023-11-19T10:28:01;4.40;;;1.10;;
28009;SDS011;15334;49.494;8.410;2023-11-19T10:30:30;5.40;;;0.93;;
28009;SDS011;15334;49.494;8.410;2023-11-19T10:33:03;1.38;;;1.00;;
28009;SDS011;15334;49.494;8.410;2023-11-19T10:35:33;2.63;;;1.20;;
28009;SDS011;15334;49.494;8.410;2023-11-19T10:38:02;2.20;;;1.10;;
28009;SDS011;15334;49.494;8.410;2023-11-19T10:40:41;3.03;;;1.52;;
28009;SDS011;15334;49.494;8.410;2023-11-19T10:43:09;5.88;;;1.20;;
28009;SDS011;15334;49.494;8.410;2023-11-19T10:45:38;5.63;;;0.90;;
28009;SDS011;15334;49.494;8.410;2023-11-19T10:48:06;3.65;;;1.02;;
28009;SDS011;15334;49.494;8.410;2023-11-19T10:50:35;4.88;;;1.00;;
28009;SDS011;15334;49.494;8.410;2023-11-19T10:53:05;4.75;;;1.00;;
28009;SDS011;15334;49.494;8.410;2023-11-19T10:55:35;4.38;;;1.02;;
28009;SDS011;15334;49.494;8.410;2023-11-19T10:58:05;2.85;;;1.00;;
28009;SDS011;15334;49.494;8.410;2023-11-19T11:00:35;2.15;;;0.80;;
28009;SDS011;15334;49.494;8.410;2023-11-19T11:03:08;3.28;;;1.10;;
28009;SDS011;15334;49.494;8.410;2023-11-19T11:05:38;5.05;;;0.80;;
28009;SDS011;15334;49.494;8.410;2023-11-19T11:08:09;3.88;;;1.15;;
28009;SDS011;15334;49.494;8.410;2023-11-19T11:10:39;2.47;;;0.93;;
28009;SDS011;15334;49.494;8.410;2023-11-19T11:13:13;2.58;;;0.65;;
28009;SDS011;15334;49.494;8.410;2023-11-19T11:15:41;3.05;;;0.85;;
28009;SDS011;15334;49.494;8.410;2023-11-19T11:18:09;3.65;;;1.00;;
28009;SDS011;15334;49.494;8.410;2023-11-19T11:20:37;2.95;;;0.90;;
28009;SDS011;15334;49.494;8.410;2023-11-19T11:23:22;3.38;;;1.27;;
28009;SDS011;15334;49.494;8.410;2023-11-19T11:26:20;1.60;;;0.85;;
28009;SDS011;15334;49.494;8.410;2023-11-19T11:28:58;6.65;;;1.08;;
28009;SDS011;15334;49.494;8.410;2023-11-19T11:31:31;5.90;;;1.20;;
28009;SDS011;15334;49.494;8.410;2023-11-19T11:34:11;1.65;;;0.73;;
28009;SDS011;15334;49.494;8.410;2023-11-19T11:36:53;2.40;;;0.68;;
28009;SDS011;15334;49.494;8.410;2023-11-19T11:39:31;3.63;;;0.90;;
28009;SDS011;15334;49.494;8.410;2023-11-19T11:45:03;3.78;;;1.05;;
28009;SDS011;15334;49.494;8.410;2023-11-19T11:50:33;2.55;;;0.60;;
28009;SDS011;15334;49.494;8.410;2023-11-19T11:53:18;2.30;;;1.23;;
28009;SDS011;15334;49.494;8.410;2023-11-19T11:55:54;3.83;;;1.20;;
28009;SDS011;15334;49.494;8.410;2023-11-19T11:58:30;2.70;;;1.17;;
28009;SDS011;15334;49.494;8.410;2023-11-19T12:01:01;3.40;;;1.08;;
28009;SDS011;15334;49.494;8.410;2023-11-19T12:03:32;2.45;;;1.30;;
28009;SDS011;15334;49.494;8.410;2023-11-19T12:06:01;6.45;;;1.40;;
28009;SDS011;15334;49.494;8.410;2023-11-19T12:08:29;2.25;;;0.85;;
28009;SDS011;15334;49.494;8.410;2023-11-19T12:10:59;4.75;;;1.15;;
28009;SDS011;15334;49.494;8.410;2023-11-19T12:16:13;2.13;;;0.80;;
28009;SDS011;15334;49.494;8.410;2023-11-19T12:18:42;3.88;;;0.95;;
28009;SDS011;15334;49.494;8.410;2023-11-19T12:21:10;2.90;;;1.00;;
28009;SDS011;15334;49.494;8.410;2023-11-19T12:23:44;3.45;;;0.93;;
28009;SDS011;15334;49.494;8.410;2023-11-19T12:31:36;4.35;;;1.17;;
28009;SDS011;15334;49.494;8.410;2023-11-19T12:34:07;3.95;;;0.95;;
28009;SDS011;15334;49.494;8.410;2023-11-19T12:36:39;6.60;;;1.08;;
28009;SDS011;15334;49.494;8.410;2023-11-19T12:39:09;3.25;;;1.20;;
28009;SDS011;15334;49.494;8.410;2023-11-19T12:41:53;2.22;;;0.90;;
28009;SDS011;15334;49.494;8.410;2023-11-19T12:44:21;4.13;;;0.88;;
28009;SDS011;15334;49.494;8.410;2023-11-19T12:49:37;4.68;;;1.33;;
28009;SDS011;15334;49.494;8.410;2023-11-19T12:52:11;4.13;;;1.20;;
28009;SDS011;15334;49.494;8.410;2023-11-19T12:54:40;4.25;;;0.82;;
28009;SDS011;15334;49.494;8.410;2023-11-19T12:57:09;4.53;;;1.02;;
28009;SDS011;15334;49.494;8.410;2023-11-19T12:59:37;5.53;;;0.98;;
28009;SDS011;15334;49.494;8.410;2023-11-19T13:02:05;5.88;;;1.17;;
28009;SDS011;15334;49.494;8.410;2023-11-19T13:04:33;7.00;;;1.23;;
28009;SDS011;15334;49.494;8.410;2023-11-19T13:07:01;4.22;;;1.13;;
28009;SDS011;15334;49.494;8.410;2023-11-19T13:09:32;4.50;;;1.25;;
28009;SDS011;15334;49.494;8.410;2023-11-19T13:12:11;4.20;;;1.05;;
28009;SDS011;15334;49.494;8.410;2023-11-19T13:14:42;3.97;;;1.33;;
28009;SDS011;15334;49.494;8.410;2023-11-19T13:17:14;7.93;;;2.58;;
28009;SDS011;15334;49.494;8.410;2023-11-19T13:19:43;8.45;;;1.60;;
28009;SDS011;15334;49.494;8.410;2023-11-19T13:22:11;8.48;;;1.17;;
28009;SDS011;15334;49.494;8.410;2023-11-19T13:24:39;5.13;;;1.10;;
28009;SDS011;15334;49.494;8.410;2023-11-19T13:27:09;3.25;;;1.42;;
28009;SDS011;15334;49.494;8.410;2023-11-19T13:29:38;3.58;;;0.90;;
28009;SDS011;15334;49.494;8.410;2023-11-19T13:32:06;2.88;;;0.77;;
28009;SDS011;15334;49.494;8.410;2023-11-19T13:34:34;2.13;;;0.82;;
28009;SDS011;15334;49.494;8.410;2023-11-19T13:37:02;3.72;;;1.08;;
28009;SDS011;15334;49.494;8.410;2023-11-19T13:39:30;3.22;;;1.17;;
28009;SDS011;15334;49.494;8.410;2023-11-19T13:41:58;4.03;;;0.90;;
28009;SDS011;15334;49.494;8.410;2023-11-19T13:44:30;3.77;;;0.70;;
28009;SDS011;15334;49.494;8.410;2023-11-19T13:46:59;4.70;;;0.82;;
28009;SDS011;15334;49.494;8.410;2023-11-19T13:49:28;3.47;;;0.90;;
28009;SDS011;15334;49.494;8.410;2023-11-19T13:51:56;3.25;;;1.00;;
28009;SDS011;15334;49.494;8.410;2023-11-19T13:54:24;3.70;;;0.85;;
28009;SDS011;15334;49.494;8.410;2023-11-19T13:56:54;3.25;;;0.90;;
28009;SDS011;15334;49.494;8.410;2023-11-19T13:59:24;1.30;;;0.70;;
28009;SDS011;15334;49.494;8.410;2023-11-19T14:01:52;4.05;;;0.90;;
28009;SDS011;15334;49.494;8.410;2023-11-19T14:04:21;3.78;;;1.25;;
28009;SDS011;15334;49.494;8.410;2023-11-19T14:06:49;2.38;;;0.93;;
28009;SDS011;15334;49.494;8.410;2023-11-19T14:09:17;2.90;;;0.60;;
28009;SDS011;15334;49.494;8.410;2023-11-19T14:11:45;3.60;;;0.80;;
28009;SDS011;15334;49.494;8.410;2023-11-19T14:14:14;2.85;;;0.75;;
28009;SDS011;15334;49.494;8.410;2023-11-19T14:16:42;4.43;;;0.93;;
28009;SDS011;15334;49.494;8.410;2023-11-19T14:19:11;2.42;;;0.80;;
28009;SDS011;15334;49.494;8.410;2023-11-19T14:21:41;6.63;;;0.98;;
28009;SDS011;15334;49.494;8.410;2023-11-19T14:24:11;1.88;;;0.77;;
28009;SDS011;15334;49.494;8.410;2023-11-19T14:26:39;5.53;;;0.77;;
28009;SDS011;15334;49.494;8.410;2023-11-19T14:29:07;3.47;;;1.10;;
28009;SDS011;15334;49.494;8.410;2023-11-19T14:31:34;6.32;;;1.30;;
28009;SDS011;15334;49.494;8.410;2023-11-19T14:34:03;4.90;;;0.93;;
28009;SDS011;15334;49.494;8.410;2023-11-19T14:36:31;6.32;;;0.95;;
28009;SDS011;15334;49.494;8.410;2023-11-19T14:39:00;2.15;;;0.90;;
28009;SDS011;15334;49.494;8.410;2023-11-19T14:41:28;4.05;;;1.00;;
28009;SDS011;15334;49.494;8.410;2023-11-19T14:43:56;1.73;;;0.60;;
28009;SDS011;15334;49.494;8.410;2023-11-19T14:46:24;3.22;;;0.90;;
28009;SDS011;15334;49.494;8.410;2023-11-19T14:48:52;2.95;;;1.00;;
28009;SDS011;15334;49.494;8.410;2023-11-19T14:51:20;2.53;;;0.80;;
28009;SDS011;15334;49.494;8.410;2023-11-19T14:53:48;4.32;;;0.90;;
28009;SDS011;15334;49.494;8.410;2023-11-19T14:56:17;3.80;;;1.02;;
28009;SDS011;15334;49.494;8.410;2023-11-19T14:58:45;3.25;;;0.90;;
28009;SDS011;15334;49.494;8.410;2023-11-19T15:01:13;3.83;;;1.00;;
28009;SDS011;15334;49.494;8.410;2023-11-19T15:03:42;4.03;;;1.27;;
28009;SDS011;15334;49.494;8.410;2023-11-19T15:06:12;2.95;;;0.80;;
28009;SDS011;15334;49.494;8.410;2023-11-19T15:08:41;4.65;;;1.10;;
28009;SDS011;15334;49.494;8.410;2023-11-19T15:11:10;6.50;;;1.20;;
28009;SDS011;15334;49.494;8.410;2023-11-19T15:13:40;2.67;;;0.80;;
28009;SDS011;15334;49.494;8.410;2023-11-19T15:16:08;5.68;;;1.30;;
28009;SDS011;15334;49.494;8.410;2023-11-19T15:18:38;2.65;;;0.88;;